Time;durP1;ratioP1;P1;durP2;ratioP2;P2;SDS_P1;SDS_P2;PMS_P1;PMS_P2;Temp;Humidity;BMP_temperature;BMP_pressure;BME280_temperature;BME280_humidity;BME280_pressure;Samples;Min_cycle;Max_cycle;Signal;HPM_P1;HPM_P2
2020/12/10 00:02:28;;;;;;;152.70;45.97;;;1.20;99.90;;;;;;5005910;28;20064;-76
2020/12/10 00:04:55;;;;;;;139.32;44.75;;;1.30;99.90;;;;;;5006094;28;20629;-77
2020/12/10 00:07:23;;;;;;;140.85;42.65;;;1.30;99.90;;;;;;5005529;28;20558;-76
2020/12/10 00:09:53;;;;;;;149.20;44.53;;;1.20;99.90;;;;;;5023474;28;20058;-76
2020/12/10 00:12:20;;;;;;;151.32;45.33;;;1.10;99.90;;;;;;5006271;28;20064;-76
2020/12/10 00:14:48;;;;;;;165.02;47.67;;;0.90;99.90;;;;;;4999941;28;20679;-77
2020/12/10 00:17:14;;;;;;;162.10;46.92;;;1.00;99.90;;;;;;5006499;28;20169;-75
2020/12/10 00:19:41;;;;;;;154.93;48.55;;;1.20;99.90;;;;;;4998029;28;20134;-77
2020/12/10 00:22:07;;;;;;;146.30;45.72;;;1.20;99.90;;;;;;5002998;28;20452;-76
2020/12/10 00:24:34;;;;;;;159.07;47.63;;;1.30;99.90;;;;;;5006730;28;20050;-76
2020/12/10 00:27:00;;;;;;;166.75;49.70;;;1.30;99.90;;;;;;5006477;28;20073;-76
2020/12/10 00:29:26;;;;;;;146.98;46.75;;;1.20;99.90;;;;;;4990241;28;20050;-76
2020/12/10 00:31:52;;;;;;;151.45;46.80;;;1.30;99.90;;;;;;5020978;28;20677;-75
2020/12/10 00:34:19;;;;;;;161.75;48.42;;;1.20;99.90;;;;;;5010530;28;20046;-75
2020/12/10 00:36:45;;;;;;;149.27;44.55;;;1.30;99.90;;;;;;4973295;28;20058;-77
2020/12/10 00:39:12;;;;;;;156.35;44.33;;;1.40;99.90;;;;;;4968519;28;20061;-77
2020/12/10 00:41:38;;;;;;;172.05;47.97;;;1.30;99.90;;;;;;4971666;28;20682;-76
2020/12/10 00:44:05;;;;;;;173.93;48.22;;;1.30;99.90;;;;;;5002808;28;20054;-76
2020/12/10 00:46:31;;;;;;;162.13;49.13;;;1.30;99.90;;;;;;4999498;28;20054;-77
2020/12/10 00:48:58;;;;;;;155.80;45.80;;;1.20;99.90;;;;;;4988437;28;20050;-77
2020/12/10 00:51:25;;;;;;;159.07;46.70;;;1.20;99.90;;;;;;4987916;28;20054;-79
2020/12/10 00:53:52;;;;;;;155.25;47.65;;;1.30;99.90;;;;;;5006105;28;20085;-75
2020/12/10 00:56:18;;;;;;;158.88;51.38;;;1.20;99.90;;;;;;4984548;28;20049;-77
2020/12/10 00:58:45;;;;;;;167.93;51.88;;;1.30;99.90;;;;;;4970447;28;20073;-76
2020/12/10 01:01:13;;;;;;;160.00;48.30;;;1.30;99.90;;;;;;4983767;28;20065;-75
2020/12/10 01:03:39;;;;;;;166.32;48.35;;;1.20;99.90;;;;;;4986958;28;20538;-76
2020/12/10 01:06:11;;;;;;;142.13;47.90;;;1.30;99.90;;;;;;4976987;28;20050;-77
2020/12/10 01:08:38;;;;;;;149.77;46.58;;;1.40;99.90;;;;;;4968136;28;20058;-77
2020/12/10 01:11:05;;;;;;;151.90;46.55;;;1.30;99.90;;;;;;4998570;28;20054;-78
2020/12/10 01:13:31;;;;;;;162.25;49.28;;;1.20;99.90;;;;;;4995358;28;20094;-76
2020/12/10 01:15:57;;;;;;;160.35;47.38;;;1.30;99.90;;;;;;5004489;28;20518;-76
2020/12/10 01:18:24;;;;;;;145.07;46.75;;;1.30;99.90;;;;;;4988958;28;20176;-75
2020/12/10 01:20:50;;;;;;;157.20;47.97;;;1.20;99.90;;;;;;5004254;28;20050;-74
2020/12/10 01:23:16;;;;;;;149.35;45.33;;;1.30;99.90;;;;;;5006557;28;20061;-76
2020/12/10 01:25:42;;;;;;;141.07;45.15;;;1.20;99.90;;;;;;4988802;28;20430;-76
2020/12/10 01:28:09;;;;;;;139.68;42.08;;;1.20;99.90;;;;;;5005348;28;20134;-76
2020/12/10 01:30:35;;;;;;;139.98;43.38;;;1.20;99.90;;;;;;5005938;28;20046;-76
2020/12/10 01:33:02;;;;;;;146.23;45.38;;;1.20;99.90;;;;;;5005404;28;20053;-76
2020/12/10 01:35:29;;;;;;;139.20;45.30;;;1.20;99.90;;;;;;5020545;28;20057;-74
2020/12/10 01:37:55;;;;;;;162.20;45.85;;;1.30;99.90;;;;;;4988190;28;20513;-76
2020/12/10 01:40:21;;;;;;;164.18;47.05;;;1.20;99.90;;;;;;5021967;28;20509;-75
2020/12/10 01:42:47;;;;;;;163.27;46.63;;;1.20;99.90;;;;;;5005497;28;20570;-76
2020/12/10 01:45:14;;;;;;;183.00;50.33;;;1.20;99.90;;;;;;4998957;28;20050;-78
2020/12/10 01:47:42;;;;;;;169.80;50.80;;;1.20;99.90;;;;;;4985346;28;20105;-77
2020/12/10 01:50:08;;;;;;;172.63;50.10;;;1.20;99.90;;;;;;4985986;28;20062;-76
2020/12/10 01:52:35;;;;;;;155.48;46.60;;;1.10;99.90;;;;;;5020599;28;20127;-75
2020/12/10 01:55:03;;;;;;;154.75;47.03;;;1.20;99.90;;;;;;5005774;28;20414;-74
2020/12/10 01:57:29;;;;;;;180.63;49.55;;;1.10;99.90;;;;;;5004943;28;20058;-75
2020/12/10 01:59:56;;;;;;;171.00;49.47;;;1.10;99.90;;;;;;4988700;28;20046;-75
2020/12/10 02:02:23;;;;;;;170.63;49.20;;;1.10;99.90;;;;;;5004687;28;20054;-76
2020/12/10 02:04:50;;;;;;;173.10;49.00;;;1.20;99.90;;;;;;5004628;28;20046;-76
2020/12/10 02:07:16;;;;;;;194.05;49.88;;;1.20;99.90;;;;;;5002870;28;20060;-76
2020/12/10 02:09:43;;;;;;;173.85;46.97;;;1.20;99.90;;;;;;4988324;28;20050;-76
2020/12/10 02:12:09;;;;;;;167.70;50.13;;;1.10;99.90;;;;;;4995591;28;20562;-76
2020/12/10 02:14:37;;;;;;;199.40;50.95;;;1.20;99.90;;;;;;5005829;28;20050;-76
2020/12/10 02:17:06;;;;;;;182.95;51.92;;;1.10;99.90;;;;;;5005021;28;20061;-76
2020/12/10 02:19:32;;;;;;;164.63;47.80;;;1.20;99.90;;;;;;5004057;28;20136;-77
2020/12/10 02:21:59;;;;;;;179.20;47.85;;;1.20;99.90;;;;;;5003635;28;20046;-76
2020/12/10 02:24:26;;;;;;;154.73;47.13;;;1.20;99.90;;;;;;4993663;28;20034;-76
2020/12/10 02:26:52;;;;;;;174.52;45.35;;;1.10;99.90;;;;;;5002046;28;20156;-76
2020/12/10 02:29:19;;;;;;;168.38;44.97;;;1.10;99.90;;;;;;5009586;28;20081;-77
2020/12/10 02:31:46;;;;;;;174.90;46.20;;;1.10;99.90;;;;;;5007640;28;20060;-77
2020/12/10 02:34:14;;;;;;;174.63;49.08;;;1.10;99.90;;;;;;5008188;28;20053;-76
2020/12/10 02:36:43;;;;;;;176.90;48.90;;;1.10;99.90;;;;;;4995502;28;20054;-74
2020/12/10 02:39:09;;;;;;;178.75;50.42;;;1.10;99.90;;;;;;4988251;28;20046;-76
2020/12/10 02:41:36;;;;;;;177.35;48.95;;;1.10;99.90;;;;;;5004687;28;20054;-76
2020/12/10 02:44:03;;;;;;;165.75;49.28;;;1.20;99.90;;;;;;4996065;28;20038;-75
2020/12/10 02:46:30;;;;;;;165.95;50.22;;;1.20;99.90;;;;;;4963653;28;20050;-76
2020/12/10 02:48:57;;;;;;;189.50;51.38;;;1.20;99.90;;;;;;4988619;28;20061;-76
2020/12/10 02:51:24;;;;;;;180.98;49.60;;;1.20;99.90;;;;;;4991428;28;20050;-76
2020/12/10 02:53:51;;;;;;;174.57;50.30;;;1.20;99.90;;;;;;4988108;28;20566;-75
2020/12/10 02:56:17;;;;;;;155.60;46.40;;;1.20;99.90;;;;;;4989673;28;20056;-76
2020/12/10 02:58:43;;;;;;;180.77;50.22;;;1.20;99.90;;;;;;5009665;28;20053;-75
2020/12/10 03:01:10;;;;;;;147.30;41.78;;;1.20;99.90;;;;;;4999230;28;20055;-75
2020/12/10 03:03:37;;;;;;;142.73;40.38;;;1.10;99.90;;;;;;4999014;28;20046;-77
2020/12/10 03:06:06;;;;;;;148.48;47.13;;;1.10;99.90;;;;;;4996856;28;20338;-75
2020/12/10 03:08:32;;;;;;;154.73;48.25;;;1.10;99.90;;;;;;4990088;28;20066;-76
2020/12/10 03:11:00;;;;;;;142.82;41.80;;;1.10;99.90;;;;;;4988149;28;20504;-76
2020/12/10 03:13:26;;;;;;;145.55;46.65;;;1.10;99.90;;;;;;4987702;28;20053;-75
2020/12/10 03:15:53;;;;;;;137.50;43.80;;;1.10;99.90;;;;;;4987525;28;20641;-75
2020/12/10 03:18:20;;;;;;;150.52;42.97;;;1.20;99.90;;;;;;4989436;28;20069;-75
2020/12/10 03:20:46;;;;;;;138.85;41.03;;;1.20;99.90;;;;;;4992217;28;20053;-76
2020/12/10 03:23:12;;;;;;;140.75;44.85;;;1.20;99.90;;;;;;4991002;28;20639;-76
2020/12/10 03:25:39;;;;;;;136.30;43.88;;;1.30;99.90;;;;;;5007937;28;20054;-79
2020/12/10 03:28:06;;;;;;;141.82;43.17;;;1.30;99.90;;;;;;5006670;28;20070;-77
2020/12/10 03:30:33;;;;;;;132.18;43.22;;;1.30;99.90;;;;;;5007002;28;20573;-75
2020/12/10 03:33:00;;;;;;;133.48;42.08;;;1.30;99.90;;;;;;5008620;28;20410;-77
2020/12/10 03:35:26;;;;;;;121.47;39.40;;;1.20;99.90;;;;;;5006638;28;20052;-74
2020/12/10 03:37:52;;;;;;;117.80;38.63;;;1.30;99.90;;;;;;5023455;28;20149;-75
2020/12/10 03:40:19;;;;;;;127.65;41.03;;;1.20;99.90;;;;;;4989941;28;20053;-77
2020/12/10 03:42:45;;;;;;;103.72;36.75;;;1.30;99.90;;;;;;4991073;28;20045;-76
2020/12/10 03:45:12;;;;;;;102.60;36.63;;;1.20;99.90;;;;;;5006392;28;20494;-78
2020/12/10 03:47:38;;;;;;;118.28;37.70;;;1.20;99.90;;;;;;4990596;28;20052;-76
2020/12/10 03:50:05;;;;;;;106.07;36.35;;;1.20;99.90;;;;;;5006839;28;20061;-76
2020/12/10 03:52:31;;;;;;;111.25;40.25;;;1.20;99.90;;;;;;5007678;28;20050;-76
2020/12/10 03:54:58;;;;;;;122.43;39.55;;;1.20;99.90;;;;;;5008025;28;20119;-74
2020/12/10 03:57:24;;;;;;;105.60;36.13;;;1.20;99.90;;;;;;5019461;28;20058;-75
2020/12/10 03:59:51;;;;;;;108.78;37.90;;;1.20;99.90;;;;;;4987289;28;20150;-75
2020/12/10 04:02:17;;;;;;;111.38;38.65;;;1.10;99.90;;;;;;5003357;28;20037;-76
2020/12/10 04:04:43;;;;;;;105.28;36.28;;;1.20;99.90;;;;;;5006832;28;20060;-76
2020/12/10 04:07:10;;;;;;;110.20;36.95;;;1.20;99.90;;;;;;4989550;28;20046;-76
2020/12/10 04:09:36;;;;;;;106.60;38.60;;;1.20;99.90;;;;;;4987421;28;20042;-76
2020/12/10 04:12:03;;;;;;;109.25;35.78;;;1.20;99.90;;;;;;5018992;28;20112;-76
2020/12/10 04:14:29;;;;;;;102.32;34.92;;;1.10;99.90;;;;;;4998066;28;20058;-76
2020/12/10 04:16:57;;;;;;;110.15;34.38;;;1.10;99.90;;;;;;5000285;28;20671;-77
2020/12/10 04:19:23;;;;;;;109.10;36.75;;;1.00;99.90;;;;;;5006680;28;20050;-77
2020/12/10 04:21:50;;;;;;;97.93;32.42;;;1.10;99.90;;;;;;5004312;28;20060;-76
2020/12/10 04:24:16;;;;;;;105.60;33.92;;;1.00;99.90;;;;;;5005415;28;20140;-77
2020/12/10 04:26:43;;;;;;;113.72;36.35;;;1.10;99.90;;;;;;5007110;28;20077;-76
2020/12/10 04:29:13;;;;;;;113.45;37.22;;;1.10;99.90;;;;;;5004916;28;20058;-76
2020/12/10 04:31:43;;;;;;;115.47;37.20;;;1.00;99.90;;;;;;5004562;28;20049;-76
2020/12/10 04:34:09;;;;;;;107.95;33.15;;;1.10;99.90;;;;;;5006417;28;20144;-76
2020/12/10 04:36:35;;;;;;;101.85;34.67;;;1.10;99.90;;;;;;5006283;28;20053;-76
2020/12/10 04:39:03;;;;;;;90.57;32.95;;;1.10;99.90;;;;;;5005897;28;20054;-77
2020/12/10 04:41:33;;;;;;;105.90;36.05;;;1.10;99.90;;;;;;5017851;28;20518;-77
2020/12/10 04:43:59;;;;;;;99.15;33.28;;;1.10;99.90;;;;;;5008007;28;20065;-77
2020/12/10 04:46:26;;;;;;;90.07;32.35;;;1.10;99.90;;;;;;4984250;28;20060;-77
2020/12/10 04:48:54;;;;;;;107.43;37.75;;;1.10;99.90;;;;;;5006002;28;20418;-78
2020/12/10 04:51:22;;;;;;;94.88;35.67;;;1.20;99.90;;;;;;5021173;28;20062;-77
2020/12/10 04:53:50;;;;;;;87.53;30.02;;;1.20;99.90;;;;;;5005258;28;20521;-77
2020/12/10 04:56:17;;;;;;;89.43;32.42;;;1.20;99.90;;;;;;4993192;28;20053;-77
2020/12/10 04:58:44;;;;;;;80.95;29.45;;;1.20;99.90;;;;;;4985905;28;20093;-76
2020/12/10 05:01:14;;;;;;;78.90;31.67;;;1.20;99.90;;;;;;4984516;28;20061;-77
2020/12/10 05:03:44;;;;;;;91.63;32.95;;;1.20;99.90;;;;;;4985702;28;20066;-76
2020/12/10 05:06:13;;;;;;;86.05;31.20;;;1.20;99.90;;;;;;4968807;28;20146;-77
2020/12/10 05:08:40;;;;;;;75.82;31.52;;;1.30;99.90;;;;;;4952984;28;20053;-76
2020/12/10 05:11:07;;;;;;;79.93;32.03;;;1.30;99.90;;;;;;4992909;28;20087;-78
2020/12/10 05:13:34;;;;;;;83.80;31.13;;;1.20;99.90;;;;;;4991215;28;20065;-76
2020/12/10 05:16:01;;;;;;;76.25;31.77;;;1.30;99.90;;;;;;4986030;28;20671;-77
2020/12/10 05:18:27;;;;;;;85.88;32.50;;;1.30;99.90;;;;;;4987254;28;20073;-77
2020/12/10 05:20:58;;;;;;;84.30;33.75;;;1.20;99.90;;;;;;4998470;28;20164;-75
2020/12/10 05:23:34;;;;;;;86.60;34.05;;;1.20;99.90;;;;;;5004778;28;20072;-76
2020/12/10 05:26:04;;;;;;;83.00;32.45;;;1.20;99.90;;;;;;5012298;28;20041;-78
2020/12/10 05:28:47;;;;;;;89.15;35.33;;;1.30;99.90;;;;;;5011509;28;20107;-78
2020/12/10 05:31:16;;;;;;;79.43;32.90;;;1.40;99.90;;;;;;4987338;28;20510;-76
2020/12/10 05:33:56;;;;;;;84.13;34.20;;;1.40;99.90;;;;;;5006155;28;20058;-77
2020/12/10 05:36:24;;;;;;;80.53;32.75;;;1.30;99.90;;;;;;5005323;28;20511;-76
2020/12/10 05:38:56;;;;;;;80.47;33.15;;;1.40;99.90;;;;;;5016930;28;20068;-76
2020/12/10 05:41:25;;;;;;;84.55;34.63;;;1.30;99.90;;;;;;5010791;28;20053;-76
2020/12/10 05:43:52;;;;;;;89.30;36.90;;;1.30;99.90;;;;;;4999302;28;20152;-77
2020/12/10 05:46:21;;;;;;;72.38;31.48;;;1.30;99.90;;;;;;4983730;28;20104;-77
2020/12/10 05:48:49;;;;;;;77.20;32.60;;;1.20;99.90;;;;;;5005503;28;20077;-77
2020/12/10 05:51:20;;;;;;;68.47;30.85;;;1.20;99.90;;;;;;4995092;28;20061;-77
2020/12/10 05:53:48;;;;;;;80.00;34.58;;;1.30;99.90;;;;;;4979694;28;20046;-75
2020/12/10 05:56:16;;;;;;;70.68;31.30;;;1.30;99.90;;;;;;4985524;28;20050;-77
2020/12/10 05:58:47;;;;;;;98.18;46.55;;;1.40;99.90;;;;;;4969477;28;20138;-76
2020/12/10 06:01:32;;;;;;;73.05;31.20;;;1.40;99.90;;;;;;4984657;28;20076;-76
2020/12/10 06:04:00;;;;;;;72.60;33.60;;;1.50;99.90;;;;;;5001976;28;20054;-77
2020/12/10 06:06:31;;;;;;;80.78;35.60;;;1.40;99.90;;;;;;4985425;28;20597;-77
2020/12/10 06:09:02;;;;;;;70.18;33.08;;;1.40;99.90;;;;;;5004471;28;20084;-76
2020/12/10 06:11:29;;;;;;;65.57;32.00;;;1.40;99.90;;;;;;5032458;28;20418;-75
2020/12/10 06:14:04;;;;;;;71.47;33.25;;;1.50;99.90;;;;;;5019234;28;20057;-77
2020/12/10 06:16:32;;;;;;;68.67;34.57;;;1.60;99.90;;;;;;4991918;28;20100;-77
2020/12/10 06:19:04;;;;;;;68.13;33.50;;;1.60;99.90;;;;;;4966398;28;20061;-75
2020/12/10 06:21:43;;;;;;;71.45;33.05;;;1.50;99.90;;;;;;4986377;28;20050;-76
2020/12/10 06:24:24;;;;;;;74.60;36.85;;;1.50;99.90;;;;;;4985213;28;20054;-77
2020/12/10 06:26:55;;;;;;;85.80;35.88;;;1.40;99.90;;;;;;4970875;28;20070;-76
2020/12/10 06:29:33;;;;;;;80.82;35.67;;;1.40;99.90;;;;;;4965578;28;20067;-76
2020/12/10 06:32:04;;;;;;;92.90;35.97;;;1.40;99.90;;;;;;4966861;28;20524;-76
2020/12/10 06:34:42;;;;;;;98.15;34.83;;;1.50;99.90;;;;;;4981916;28;20077;-76
2020/12/10 06:37:23;;;;;;;93.30;37.10;;;1.50;99.90;;;;;;4984061;28;20058;-76
2020/12/10 06:39:53;;;;;;;93.47;36.33;;;1.40;99.90;;;;;;5001520;28;20051;-77
2020/12/10 06:42:19;;;;;;;77.05;32.63;;;1.40;99.90;;;;;;5002971;28;20253;-74
2020/12/10 06:44:46;;;;;;;88.05;35.03;;;1.40;99.90;;;;;;4976336;28;20412;-77
2020/12/10 06:47:13;;;;;;;91.00;36.47;;;1.50;99.90;;;;;;4995707;28;20050;-76
2020/12/10 06:49:40;;;;;;;95.38;35.20;;;1.50;99.90;;;;;;5002453;28;20315;-78
2020/12/10 06:52:20;;;;;;;87.22;34.17;;;1.40;99.90;;;;;;4997398;28;20057;-78
2020/12/10 06:55:10;;;;;;;95.00;35.70;;;1.40;99.90;;;;;;4988069;28;20072;-76
2020/12/10 06:58:12;;;;;;;98.30;36.92;;;1.50;99.90;;;;;;5000305;28;20057;-78
2020/12/10 07:00:48;;;;;;;104.10;36.92;;;1.40;99.90;;;;;;4984993;28;20051;-78
2020/12/10 07:03:22;;;;;;;93.70;36.97;;;1.40;99.90;;;;;;4984146;28;20838;-76
2020/12/10 07:05:49;;;;;;;98.78;34.42;;;1.30;99.90;;;;;;4993070;28;20488;-76
2020/12/10 07:08:17;;;;;;;100.22;34.45;;;1.30;99.90;;;;;;5003520;28;20046;-75
2020/12/10 07:10:49;;;;;;;85.72;35.25;;;1.30;99.90;;;;;;5003867;28;20042;-76
2020/12/10 07:13:17;;;;;;;94.40;38.50;;;1.30;99.90;;;;;;5007257;28;20141;-76
2020/12/10 07:15:50;;;;;;;91.88;36.03;;;1.40;99.90;;;;;;5020406;28;20054;-76
2020/12/10 07:18:16;;;;;;;103.15;35.80;;;1.40;99.90;;;;;;5004725;28;20054;-75
2020/12/10 07:20:43;;;;;;;101.80;37.72;;;1.40;99.90;;;;;;4986855;28;20068;-77
2020/12/10 07:23:09;;;;;;;113.00;39.78;;;1.50;99.90;;;;;;4988130;28;20455;-76
2020/12/10 07:25:35;;;;;;;101.10;38.83;;;1.50;99.90;;;;;;4977105;28;20069;-76
2020/12/10 07:28:02;;;;;;;110.82;38.78;;;1.40;99.90;;;;;;5009786;28;20062;-75
2020/12/10 07:30:30;;;;;;;107.63;41.60;;;1.50;99.90;;;;;;4988090;28;20054;-76
2020/12/10 07:33:00;;;;;;;112.30;38.55;;;1.50;99.90;;;;;;4987910;28;20499;-76
2020/12/10 07:35:34;;;;;;;108.07;40.00;;;1.40;99.90;;;;;;4988195;28;20054;-76
2020/12/10 07:38:12;;;;;;;103.68;40.33;;;1.40;99.90;;;;;;4971163;28;20050;-76
2020/12/10 07:40:39;;;;;;;115.57;39.58;;;1.50;99.90;;;;;;4992427;28;20049;-76
2020/12/10 07:43:07;;;;;;;101.28;36.05;;;1.60;99.90;;;;;;5007677;28;20492;-76
2020/12/10 07:45:34;;;;;;;96.63;37.75;;;1.60;99.90;;;;;;4982121;28;20065;-75
2020/12/10 07:48:03;;;;;;;95.68;37.13;;;1.60;99.90;;;;;;4969844;28;20061;-76
2020/12/10 07:50:31;;;;;;;90.40;36.53;;;1.60;99.90;;;;;;4971509;28;20496;-76
2020/12/10 07:53:03;;;;;;;105.47;39.70;;;1.60;99.90;;;;;;4987014;28;20061;-76
2020/12/10 07:55:34;;;;;;;102.68;41.58;;;1.70;99.90;;;;;;4986173;28;20054;-76
2020/12/10 07:58:17;;;;;;;100.65;39.42;;;1.60;99.90;;;;;;4988797;28;20141;-76
2020/12/10 08:00:46;;;;;;;109.43;40.17;;;1.60;99.90;;;;;;4988065;28;20050;-76
2020/12/10 08:03:20;;;;;;;114.78;42.60;;;1.60;99.90;;;;;;4987965;28;20058;-76
2020/12/10 08:06:08;;;;;;;102.28;37.53;;;1.70;99.90;;;;;;4994928;28;20133;-76
2020/12/10 08:08:37;;;;;;;109.60;39.33;;;1.60;99.90;;;;;;5005237;28;20108;-77
2020/12/10 08:11:20;;;;;;;115.38;43.53;;;1.60;99.90;;;;;;5007002;28;20057;-77
2020/12/10 08:13:58;;;;;;;108.70;41.65;;;1.60;99.90;;;;;;5003174;28;20150;-77
2020/12/10 08:16:42;;;;;;;103.65;41.25;;;1.60;99.90;;;;;;4999067;28;20056;-77
2020/12/10 08:19:25;;;;;;;95.88;37.47;;;1.70;99.90;;;;;;5007247;28;20577;-77
2020/12/10 08:21:53;;;;;;;101.43;37.70;;;1.60;99.90;;;;;;4975093;28;20077;-78
2020/12/10 08:24:36;;;;;;;92.13;35.60;;;1.60;99.90;;;;;;4970392;28;20495;-77
2020/12/10 08:27:05;;;;;;;86.25;37.60;;;1.60;99.90;;;;;;4966903;28;20057;-77
2020/12/10 08:29:32;;;;;;;97.15;38.35;;;1.70;99.90;;;;;;4951768;28;20051;-77
2020/12/10 08:32:24;;;;;;;97.53;40.05;;;1.70;99.90;;;;;;5002019;28;20046;-77
2020/12/10 08:35:02;;;;;;;98.43;39.13;;;1.80;99.90;;;;;;5004953;28;20060;-76
2020/12/10 08:37:37;;;;;;;106.97;42.65;;;1.80;99.90;;;;;;5006440;28;20195;-77
2020/12/10 08:40:04;;;;;;;101.20;39.92;;;1.80;99.90;;;;;;5007497;28;20058;-78
2020/12/10 08:42:31;;;;;;;108.15;41.78;;;1.70;99.90;;;;;;5023603;28;20053;-76
2020/12/10 08:44:57;;;;;;;98.93;38.17;;;1.70;99.90;;;;;;4991180;28;20042;-76
2020/12/10 08:47:34;;;;;;;106.38;40.95;;;1.70;99.90;;;;;;5010569;28;20644;-76
2020/12/10 08:50:22;;;;;;;103.80;40.35;;;1.80;99.90;;;;;;5011687;28;20053;-76
2020/12/10 08:53:09;;;;;;;114.05;43.90;;;2.00;99.90;;;;;;5009958;28;20118;-76
2020/12/10 08:55:48;;;;;;;90.75;39.90;;;1.80;99.90;;;;;;4986885;28;20125;-77
2020/12/10 08:58:15;;;;;;;101.97;42.53;;;1.80;99.90;;;;;;5002763;28;20524;-77
2020/12/10 09:00:42;;;;;;;95.95;39.15;;;1.90;99.90;;;;;;5000298;28;20134;-76
2020/12/10 09:03:08;;;;;;;94.35;39.70;;;1.90;99.90;;;;;;5001114;28;20065;-77
2020/12/10 09:05:35;;;;;;;104.60;42.47;;;1.90;99.90;;;;;;4969236;28;20133;-77
2020/12/10 09:08:02;;;;;;;105.53;46.60;;;2.00;99.90;;;;;;4983724;28;20141;-77
2020/12/10 09:10:29;;;;;;;92.00;40.65;;;2.00;99.90;;;;;;5006763;28;20133;-78
2020/12/10 09:12:57;;;;;;;93.43;39.13;;;2.00;99.90;;;;;;5029347;28;20057;-77
2020/12/10 09:15:38;;;;;;;97.30;38.72;;;1.90;99.90;;;;;;4988091;28;20058;-76
2020/12/10 09:18:04;;;;;;;106.65;44.10;;;2.00;99.90;;;;;;4971498;28;20061;-77
2020/12/10 09:20:30;;;;;;;102.45;41.38;;;2.10;99.90;;;;;;4992619;28;20546;-77
2020/12/10 09:22:57;;;;;;;98.22;40.60;;;2.10;99.90;;;;;;5009130;28;20048;-76
2020/12/10 09:25:23;;;;;;;91.20;38.03;;;2.10;99.90;;;;;;5007740;28;20050;-76
2020/12/10 09:27:49;;;;;;;93.32;37.55;;;2.20;99.90;;;;;;4994230;28;20486;-77
2020/12/10 09:30:15;;;;;;;88.05;36.67;;;2.20;99.90;;;;;;4994245;28;20050;-76
2020/12/10 09:32:42;;;;;;;80.60;38.08;;;2.10;99.90;;;;;;4996691;28;20046;-76
2020/12/10 09:35:10;;;;;;;88.53;35.85;;;2.00;99.90;;;;;;5011321;28;20615;-76
2020/12/10 09:37:38;;;;;;;85.20;36.55;;;2.00;99.90;;;;;;5011379;28;20088;-76
2020/12/10 09:40:07;;;;;;;85.35;38.72;;;2.10;99.90;;;;;;4996708;28;20262;-77
2020/12/10 09:42:37;;;;;;;88.30;37.20;;;2.10;99.90;;;;;;5007889;28;20050;-77
2020/12/10 09:45:04;;;;;;;79.88;36.05;;;2.10;99.90;;;;;;5003215;28;20057;-78
2020/12/10 09:47:30;;;;;;;84.65;37.28;;;2.10;99.90;;;;;;4981485;28;20043;-77
2020/12/10 09:49:57;;;;;;;91.57;38.60;;;2.10;99.90;;;;;;4970947;28;20128;-78
2020/12/10 09:52:25;;;;;;;68.55;32.40;;;2.10;99.90;;;;;;5023702;28;20050;-77
2020/12/10 09:57:29;;;;;;;79.95;37.30;;;2.10;99.90;;;;;;4987273;28;20066;-77
2020/12/10 09:59:58;;;;;;;78.18;34.97;;;2.30;99.90;;;;;;5002504;28;20080;-76
2020/12/10 10:02:25;;;;;;;79.57;36.05;;;2.20;99.90;;;;;;4982222;28;20046;-77
2020/12/10 10:04:53;;;;;;;80.15;37.53;;;2.20;99.90;;;;;;4986006;28;20073;-76
2020/12/10 10:07:19;;;;;;;85.30;38.05;;;2.20;99.90;;;;;;4969431;28;20616;-76
2020/12/10 10:09:47;;;;;;;96.72;41.70;;;2.20;99.90;;;;;;5001428;28;20057;-77
2020/12/10 10:12:13;;;;;;;91.57;40.33;;;2.20;99.90;;;;;;4985116;28;20058;-77
2020/12/10 10:14:41;;;;;;;90.88;42.45;;;2.30;99.90;;;;;;4998756;28;20052;-78
2020/12/10 10:17:10;;;;;;;90.68;38.95;;;2.30;99.90;;;;;;4998123;28;20046;-76
2020/12/10 10:19:38;;;;;;;86.68;38.30;;;2.20;99.90;;;;;;4985333;28;20430;-77
2020/12/10 10:22:04;;;;;;;82.15;37.33;;;2.20;99.90;;;;;;4980799;28;20050;-73
2020/12/10 10:24:31;;;;;;;81.80;36.45;;;2.20;99.90;;;;;;4985342;28;20049;-75
2020/12/10 10:26:58;;;;;;;94.25;41.28;;;2.30;99.90;;;;;;4999976;28;20077;-74
2020/12/10 10:29:25;;;;;;;94.47;40.08;;;2.20;99.90;;;;;;4983148;28;20078;-71
2020/12/10 10:31:53;;;;;;;97.85;41.55;;;2.20;99.90;;;;;;4999011;28;20522;-75
2020/12/10 10:34:20;;;;;;;88.43;37.63;;;2.20;99.90;;;;;;5002648;28;20062;-74
2020/12/10 10:36:49;;;;;;;89.97;37.90;;;2.20;99.90;;;;;;5003067;28;20511;-72
2020/12/10 10:39:16;;;;;;;93.15;39.47;;;2.20;99.90;;;;;;5020824;28;20407;-77
2020/12/10 10:41:45;;;;;;;92.88;41.35;;;2.30;99.90;;;;;;5003795;28;20037;-76
2020/12/10 10:44:12;;;;;;;106.65;45.20;;;2.40;99.90;;;;;;4980353;28;20138;-76
2020/12/10 10:46:39;;;;;;;100.15;41.05;;;2.40;99.90;;;;;;4997273;28;20132;-76
2020/12/10 10:49:06;;;;;;;92.88;38.50;;;2.50;99.90;;;;;;5004682;28;20050;-78
2020/12/10 10:51:32;;;;;;;93.07;39.85;;;2.50;99.90;;;;;;4975216;28;20050;-77
2020/12/10 10:53:59;;;;;;;90.78;43.72;;;2.50;99.90;;;;;;4936309;28;20057;-77
2020/12/10 10:56:26;;;;;;;96.55;40.70;;;2.60;99.90;;;;;;4991712;28;20132;-77
2020/12/10 10:58:53;;;;;;;78.65;38.58;;;2.60;99.90;;;;;;4990894;28;20065;-76
2020/12/10 11:01:27;;;;;;;71.40;35.38;;;2.40;99.90;;;;;;4995896;28;20060;-76
2020/12/10 11:03:54;;;;;;;84.63;40.20;;;2.30;99.90;;;;;;4988001;28;20095;-76
2020/12/10 11:06:20;;;;;;;85.80;40.67;;;2.30;99.90;;;;;;4978693;28;20081;-75
2020/12/10 11:08:47;;;;;;;71.70;38.63;;;2.30;99.90;;;;;;5004727;28;20105;-76
2020/12/10 11:11:23;;;;;;;82.57;39.33;;;2.40;99.90;;;;;;4998545;28;20056;-77
2020/12/10 11:13:50;;;;;;;74.43;36.42;;;2.40;99.90;;;;;;5003599;28;20075;-77
2020/12/10 11:16:17;;;;;;;65.82;32.63;;;2.40;99.90;;;;;;4990472;28;20042;-75
2020/12/10 11:18:44;;;;;;;81.40;38.30;;;2.40;99.90;;;;;;4996297;28;20797;-74
2020/12/10 11:21:12;;;;;;;65.88;36.95;;;2.40;99.90;;;;;;5015437;28;20059;-74
2020/12/10 11:23:38;;;;;;;72.45;36.83;;;2.40;99.90;;;;;;5008874;28;20088;-74
2020/12/10 11:26:05;;;;;;;75.68;38.75;;;2.50;99.90;;;;;;4989269;28;20050;-74
2020/12/10 11:28:32;;;;;;;71.75;36.40;;;2.40;99.90;;;;;;4981504;28;20051;-74
2020/12/10 11:30:59;;;;;;;75.22;35.72;;;2.40;99.90;;;;;;4994655;28;20062;-74
2020/12/10 11:33:25;;;;;;;77.25;38.08;;;2.50;99.90;;;;;;4983610;28;20055;-76
2020/12/10 11:35:52;;;;;;;71.00;36.78;;;2.50;99.90;;;;;;5020442;28;20054;-74
2020/12/10 11:38:19;;;;;;;70.07;39.40;;;2.60;99.90;;;;;;5004939;28;20526;-75
2020/12/10 11:40:46;;;;;;;74.53;39.20;;;2.80;99.90;;;;;;4986962;28;20145;-75
2020/12/10 11:43:12;;;;;;;66.70;36.38;;;2.90;99.90;;;;;;5013814;28;20142;-74
2020/12/10 11:45:38;;;;;;;59.90;34.90;;;2.90;99.90;;;;;;5003108;28;20038;-74
2020/12/10 11:48:05;;;;;;;61.15;35.20;;;3.10;99.90;;;;;;5004062;28;20041;-74
2020/12/10 11:50:33;;;;;;;57.53;33.33;;;3.10;99.90;;;;;;5006722;28;20042;-74
2020/12/10 11:53:00;;;;;;;64.72;34.85;;;3.00;99.90;;;;;;5001237;28;20495;-74
2020/12/10 11:55:26;;;;;;;63.72;34.05;;;2.90;99.90;;;;;;4990304;28;20037;-75
2020/12/10 11:57:54;;;;;;;58.38;32.95;;;2.90;99.90;;;;;;5005933;28;20061;-75
2020/12/10 12:00:21;;;;;;;63.70;34.15;;;3.00;99.90;;;;;;5007279;28;20069;-73
2020/12/10 12:02:51;;;;;;;64.53;36.20;;;3.00;99.90;;;;;;5003579;28;20132;-75
2020/12/10 12:05:19;;;;;;;65.03;35.03;;;3.20;99.90;;;;;;4987250;28;20298;-76
2020/12/10 12:07:47;;;;;;;62.70;36.70;;;3.20;99.90;;;;;;4977533;28;20157;-77
2020/12/10 12:10:15;;;;;;;70.78;40.85;;;3.20;99.90;;;;;;4981954;28;20051;-74
2020/12/10 12:12:42;;;;;;;75.85;43.38;;;3.20;99.90;;;;;;5005401;28;20522;-73
2020/12/10 12:15:08;;;;;;;57.60;35.33;;;3.30;99.90;;;;;;5002942;28;20057;-74
2020/12/10 12:17:35;;;;;;;65.00;35.35;;;3.30;99.90;;;;;;4986233;28;20062;-74
2020/12/10 12:20:04;;;;;;;67.50;38.00;;;3.40;99.90;;;;;;4987520;28;20042;-74
2020/12/10 12:22:30;;;;;;;63.28;35.10;;;3.30;99.90;;;;;;4969329;28;20056;-74
2020/12/10 12:24:57;;;;;;;66.20;38.40;;;3.20;99.90;;;;;;4986355;28;20046;-74
2020/12/10 12:27:23;;;;;;;65.75;36.28;;;3.10;99.90;;;;;;5006333;28;20542;-74
2020/12/10 12:29:49;;;;;;;68.90;34.70;;;3.10;99.90;;;;;;5003778;28;20449;-74
2020/12/10 12:32:15;;;;;;;68.10;35.88;;;3.10;99.90;;;;;;4982039;28;20064;-74
2020/12/10 12:34:42;;;;;;;74.60;38.10;;;3.10;99.90;;;;;;4972887;28;20058;-74
2020/12/10 12:37:10;;;;;;;70.80;35.70;;;3.20;99.90;;;;;;4989030;28;20051;-74
2020/12/10 12:39:36;;;;;;;59.40;33.53;;;3.30;99.90;;;;;;4984925;28;20062;-74
2020/12/10 12:42:05;;;;;;;71.38;35.55;;;3.20;99.90;;;;;;4985692;28;20153;-75
2020/12/10 12:44:31;;;;;;;69.97;35.47;;;3.10;99.90;;;;;;4972213;28;20137;-74